Flushing, NY (11367)

6:36 PM EDT on August 30, 2015 (GMT -0400)
Cedar Grove Cemetery, Flushing | | Change Station
CLOSE
Current Station
Personal Weather Station
Location: New York, NY
Elevation: 49 ft
Nearby Weather Stations

Elev 49 ft 40.74 °N, 73.83 °W | Updated 6 minutes ago

Mostly Cloudy
Mostly Cloudy
80.6 °F
Feels Like 84 °F
N
2.7
Wind Variable Wind from WSW

Today
High -- | Low -- °F
--% Chance of Precip.
Yesterday
High -- | Low -- °F
Precip. -- in
6:20 AM 7:31 PM
Full, 98% visible
Pressure 30.01 in
Visibility 10.0 miles
Clouds Few 3600 ft
Scattered Clouds 6000 ft
Mostly Cloudy 17000 ft
Mostly Cloudy 25000 ft
Heat Index 84 °F
Dew Point 69 °F
Humidity 68%
Rainfall 0.00 in
Snow Depth Not available.
UV 1 out of 12
Pollen 10.30 out of 12
Air Quality Not available.
Flu Activity Not available.
METAR KLGA 302151Z 17011KT 10SM FEW036TCU SCT060 BKN170 BKN250 28/19 A3000 RMK AO2 SLP160 TCU N AND W T02830194
Pressure 30.01 in
Visibility 10.0 miles
Clouds Few 3600 ft
Scattered Clouds 6000 ft
Mostly Cloudy 17000 ft
Mostly Cloudy 25000 ft
Heat Index 84 °F
Dew Point 69 °F
Humidity 68%
Rainfall 0.00 in
Snow Depth Not available.
UV 1 out of 12
Pollen 10.30 out of 12
Air Quality Not available.
Flu Activity Not available.
METAR KLGA 302151Z 17011KT 10SM FEW036TCU SCT060 BKN170 BKN250 28/19 A3000 RMK AO2 SLP160 TCU N AND W T02830194

10-Day Weather Forecast

×

Almanac

Astronomy

Aug. 30, 2015 Rise Set
Actual Time
Civil Twilight
Nautical Twilight
Astronomical Twilight
Moon
Length of Visible Light
Length of Day
Tomorrow will be .
, % of the Moon is Illuminated

Today's Extremes

State Highs State Lows

Community

WunderPhotos

Upload Photos

1,851,074 photos uploaded!

WunderBlogs® & News

Nearby

Air Quality

  Air Quality AQ Index Pollutant
Not available.

Snow Depth

Station Depth Elevation

Earthquake Activity

City Distance Mag. Time & Date
Minimum magnitude displayed is 2.5.

Coastal Water Temperatures

Place Temperature

Stations

Nearby Weather Stations

Station Location Temp. Windchill Dew Point Humidity Wind Precip. Elev Updated Type